Aviation Digital Data Service (ADDS)

Output produced by TAFs form (0807 UTC 02 July 2015)
found at http://aviationweather.gov/adds/tafs/
 
KROW 020537Z 0206/0306 16008KT P6SM SKC 
     FM022000 15009KT P6SM FEW090 
     FM030000 16010KT P6SM SCT090 SCT150